HMZ weather

Bedford County Airport
Bedford, Pennsylvania, United States

Public forecast

Using degrees Fahrenheit for public forecast. Weather courtesy of forecast.io.

Current aviation weather report (METAR) for Bedford County Airport

Retrieved 2020/05/25 14:35 UTC (0 seconds ago):

KHMZ 251435Z AUTO 12006KT 10SM OVC009 18/16 A3021 RMK AO2 T01760160

Closest aviation forecast (TAF) to Bedford County Airport

Closest forecast is Altoona Blair County Airport, 15.4 nm (28.6 km) NE. Retrieved 2020/05/25 12:22 UTC (2 hours ago):

TAF KAOO 251120Z 2512/2612 17004KT 2SM BR OVC003 FM251400 16004KT P6SM OVC015 FM251700 15006KT P6SM SCT050 BKN250 FM260500 15002KT 6SM BR OVC025